Thomaston, Georgia
Current Conditions -  °F | °C
As of 12:35 AM on Monday 22 Dec 2014 (Local Time) from KOPN Reporting Station
Haze Haze  
Wind Chill: 50°   Ceiling: 400
Heat Index: 50°   Visibility: 5mi
Dew Point: 48°   Wind: 6mph
Humidity: 94%   Direction: 100°E
Pressure: 30.08"   Gusts: NA
Location:  32.9°N, 84.33°W
Report Text: KOPN 220535Z AUTO 10005KT 5SM BR OVC004 10/09 A3008 RMK AO2
Loading
Personal Weather Stations






























Interactive Weather Map New forecast layout! Learn more

10-Day Weather Forecast

Advertisements
Track Severe Weather on mobile